createdAt,value
2024-05-09T00:02:06.889Z,54.44
2024-05-09T00:07:07.008Z,55.11
2024-05-09T00:12:07.071Z,55.13
2024-05-09T00:17:06.968Z,55.28
2024-05-09T00:22:07.057Z,55.55
2024-05-09T00:27:08.345Z,55.95
2024-05-09T00:32:07.095Z,55.91
2024-05-09T00:37:06.834Z,56.05
2024-05-09T00:42:07.010Z,57.08
2024-05-09T00:47:07.939Z,57.54
2024-05-09T00:52:08.488Z,57.98
2024-05-09T00:57:06.995Z,58.08
2024-05-09T01:02:08.502Z,58.66
2024-05-09T01:07:07.255Z,59.35
2024-05-09T01:12:07.071Z,59.42
2024-05-09T01:17:06.961Z,59.86
2024-05-09T01:22:07.042Z,60.04
2024-05-09T01:27:06.832Z,60.19
2024-05-09T01:32:06.933Z,60.97
2024-05-09T01:37:06.757Z,61.41
2024-05-09T01:42:07.102Z,61.88
2024-05-09T01:47:07.053Z,62.46
2024-05-09T01:52:06.829Z,62.76
2024-05-09T01:57:07.135Z,60.92
2024-05-09T02:02:06.931Z,60.29
2024-05-09T02:07:06.935Z,59.64
2024-05-09T02:12:07.014Z,59.34
2024-05-09T02:17:06.910Z,59.50
2024-05-09T02:22:06.845Z,59.71
2024-05-09T02:27:07.374Z,60.10
2024-05-09T02:32:07.019Z,59.82
2024-05-09T02:37:06.755Z,59.53
2024-05-09T02:42:06.888Z,59.91
2024-05-09T02:47:06.959Z,59.86
2024-05-09T02:52:06.775Z,60.24
2024-05-09T02:57:07.058Z,60.47
2024-05-09T03:02:06.823Z,60.38
2024-05-09T03:07:06.879Z,61.50
2024-05-09T03:12:08.364Z,61.99
2024-05-09T03:17:06.814Z,62.81
2024-05-09T03:22:06.765Z,62.97
2024-05-09T03:27:07.063Z,63.52
2024-05-09T03:32:06.700Z,63.60
2024-05-09T03:37:07.221Z,63.82
2024-05-09T03:42:07.007Z,64.03
2024-05-09T03:47:07.016Z,63.95
2024-05-09T03:52:06.699Z,63.74
2024-05-09T03:57:06.810Z,63.56
2024-05-09T04:02:06.754Z,63.83
2024-05-09T04:07:06.793Z,62.96
2024-05-09T04:12:07.110Z,63.28
2024-05-09T04:17:06.727Z,63.50
2024-05-09T04:22:07.062Z,63.31
2024-05-09T04:27:07.193Z,63.16
2024-05-09T04:32:07.120Z,62.71
2024-05-09T04:37:06.840Z,61.75
2024-05-09T04:42:06.801Z,61.29
2024-05-09T04:47:06.816Z,60.99
2024-05-09T04:52:06.846Z,60.43
2024-05-09T04:57:07.034Z,60.58
2024-05-09T05:02:06.709Z,60.46
2024-05-09T05:07:06.731Z,58.04
2024-05-09T05:17:06.742Z,57.38
2024-05-09T05:22:06.628Z,55.64
2024-05-09T05:27:06.958Z,54.14
2024-05-09T05:32:07.702Z,53.92
2024-05-09T05:37:07.218Z,53.61
2024-05-09T05:42:06.708Z,51.91
2024-05-09T05:47:07.862Z,51.45
2024-05-09T05:52:06.581Z,50.59
2024-05-09T05:57:07.116Z,49.49
2024-05-09T06:02:08.502Z,49.00
2024-05-09T06:07:06.685Z,47.99
2024-05-09T06:12:06.955Z,47.66
2024-05-09T06:17:06.595Z,46.34
2024-05-09T06:22:08.495Z,44.22
2024-05-09T06:27:07.845Z,44.32
2024-05-09T06:32:06.954Z,42.58
2024-05-09T06:37:06.588Z,41.56
2024-05-09T06:42:06.759Z,44.38
2024-05-09T06:47:06.628Z,40.86
2024-05-09T06:52:08.148Z,39.29
2024-05-09T06:57:06.649Z,37.78
2024-05-09T07:02:06.723Z,39.05
2024-05-09T07:07:08.177Z,37.92
2024-05-09T07:12:06.943Z,35.34
2024-05-09T07:17:06.716Z,34.92
2024-05-09T07:22:06.749Z,33.19
2024-05-09T07:27:07.148Z,32.34
2024-05-09T07:32:07.935Z,29.80
2024-05-09T07:37:11.523Z,29.15
2024-05-09T07:42:07.024Z,27.28
2024-05-09T07:48:14.507Z,26.42
2024-05-09T07:57:06.596Z,23.92
2024-05-09T08:02:06.850Z,25.69
2024-05-09T08:07:06.582Z,23.86
2024-05-09T08:12:08.190Z,22.61
2024-05-09T08:17:06.516Z,21.75
2024-05-09T08:22:06.859Z,22.56
2024-05-09T08:27:06.944Z,22.41
2024-05-09T08:32:11.273Z,22.52
2024-05-09T08:37:13.087Z,23.34
2024-05-09T08:42:07.017Z,22.04
2024-05-09T08:47:08.838Z,23.35
2024-05-09T08:52:07.046Z,23.93
2024-05-09T08:57:07.494Z,23.86
2024-05-09T09:02:10.885Z,21.98
2024-05-09T09:07:06.524Z,23.11
2024-05-09T09:12:08.570Z,23.03
2024-05-09T09:17:12.262Z,24.48
2024-05-09T09:22:17.097Z,23.56
2024-05-09T09:27:06.711Z,22.77
2024-05-09T09:32:07.545Z,22.60
2024-05-09T09:37:08.982Z,22.86
2024-05-09T09:42:06.762Z,22.91
2024-05-09T09:47:07.522Z,22.70
2024-05-09T09:52:08.463Z,22.73
2024-05-09T09:57:07.453Z,22.49
2024-05-09T10:02:06.692Z,22.08
2024-05-09T10:07:09.195Z,22.23
2024-05-09T10:12:09.597Z,21.79
2024-05-09T10:17:06.468Z,21.20
2024-05-09T10:22:07.722Z,22.54
2024-05-09T10:27:06.491Z,23.57
2024-05-09T10:32:07.515Z,24.72
2024-05-09T10:37:06.689Z,23.27
2024-05-09T10:42:08.940Z,23.38
2024-05-09T10:47:06.569Z,23.48
2024-05-09T10:52:07.309Z,23.88
2024-05-09T10:57:06.428Z,25.17
2024-05-09T11:02:06.723Z,26.21
2024-05-09T11:07:09.380Z,25.36
2024-05-09T11:12:07.444Z,25.92
2024-05-09T11:17:07.099Z,25.43
2024-05-09T11:22:06.982Z,25.89
2024-05-09T11:27:06.417Z,26.39
2024-05-09T11:32:07.772Z,27.57
2024-05-09T11:37:06.669Z,25.87
2024-05-09T11:42:06.872Z,26.13
2024-05-09T11:47:06.477Z,26.58
2024-05-09T11:52:06.640Z,26.21
2024-05-09T11:57:06.419Z,27.21
2024-05-09T12:02:06.822Z,27.78
2024-05-09T12:07:08.422Z,26.69
2024-05-09T12:12:06.682Z,27.31
2024-05-09T12:17:06.428Z,27.11
2024-05-09T12:22:06.698Z,26.67
2024-05-09T12:27:06.375Z,26.72
2024-05-09T12:32:06.846Z,26.43
2024-05-09T12:37:06.628Z,26.24
2024-05-09T12:42:06.510Z,26.54
2024-05-09T12:47:06.377Z,26.67
2024-05-09T12:52:06.547Z,27.29
2024-05-09T12:57:06.543Z,26.94
2024-05-09T13:02:06.563Z,27.53
2024-05-09T13:07:08.039Z,27.11
2024-05-09T13:12:06.649Z,27.14
2024-05-09T13:17:06.664Z,27.10
2024-05-09T13:22:06.550Z,27.51
2024-05-09T13:32:07.150Z,27.43
2024-05-09T13:37:06.650Z,26.76
2024-05-09T13:42:06.371Z,27.70
2024-05-09T13:47:06.582Z,27.26
2024-05-09T13:52:06.446Z,27.48
2024-05-09T13:57:06.527Z,27.79
2024-05-09T14:02:06.663Z,27.73
2024-05-09T14:07:08.910Z,27.65
2024-05-09T14:12:08.621Z,26.90
2024-05-09T14:17:06.964Z,27.38
2024-05-09T14:22:06.566Z,27.28
2024-05-09T14:27:06.708Z,28.27
2024-05-09T14:32:06.436Z,28.09
2024-05-09T14:37:07.048Z,28.50
2024-05-09T14:42:06.351Z,28.95
2024-05-09T14:47:06.687Z,28.22
2024-05-09T14:52:06.914Z,28.89
2024-05-09T14:57:06.387Z,29.82
2024-05-09T15:02:06.624Z,29.23
2024-05-09T15:07:08.139Z,29.34
2024-05-09T15:12:08.312Z,29.25
2024-05-09T15:17:06.735Z,29.54
2024-05-09T15:22:06.393Z,30.35
2024-05-09T15:27:06.341Z,29.86
2024-05-09T15:32:06.498Z,29.97
2024-05-09T15:37:07.440Z,29.63
2024-05-09T15:42:06.308Z,30.05
2024-05-09T15:47:07.114Z,30.79
2024-05-09T15:52:06.552Z,30.87
2024-05-09T15:57:07.446Z,31.74
2024-05-09T16:02:07.666Z,31.39
2024-05-09T16:07:06.663Z,31.73
2024-05-09T16:12:06.945Z,32.01
2024-05-09T16:17:06.571Z,32.09
2024-05-09T16:22:06.668Z,32.23
2024-05-09T16:27:06.279Z,32.27
2024-05-09T16:32:06.542Z,32.76
2024-05-09T16:37:09.806Z,32.75
2024-05-09T16:42:06.318Z,32.65
2024-05-09T16:47:06.927Z,33.20
2024-05-09T16:52:06.576Z,33.56
2024-05-09T16:57:06.357Z,33.90
2024-05-09T17:02:08.329Z,34.01
2024-05-09T17:07:06.346Z,34.17
2024-05-09T17:12:06.575Z,34.65
2024-05-09T17:17:07.884Z,34.66
2024-05-09T17:22:06.323Z,34.98
2024-05-09T17:27:07.123Z,35.11
2024-05-09T17:32:06.616Z,35.43
2024-05-09T17:37:06.300Z,35.67
2024-05-09T17:42:06.261Z,36.15
2024-05-09T17:47:13.453Z,36.26
2024-05-09T17:52:06.343Z,36.67
2024-05-09T17:57:07.263Z,36.75
2024-05-09T18:02:06.320Z,37.07
2024-05-09T18:07:06.381Z,37.39
2024-05-09T18:12:09.340Z,37.75
2024-05-09T18:17:06.381Z,37.79
2024-05-09T18:22:06.314Z,37.71
2024-05-09T18:27:06.434Z,37.76
2024-05-09T18:32:06.567Z,37.85
2024-05-09T18:37:08.188Z,38.00
2024-05-09T18:42:06.581Z,38.21
2024-05-09T18:47:06.338Z,38.41
2024-05-09T18:52:06.211Z,38.71
2024-05-09T18:57:07.004Z,38.83
2024-05-09T19:02:08.979Z,39.08
2024-05-09T19:07:06.326Z,39.44
2024-05-09T19:12:06.617Z,39.87
2024-05-09T19:17:06.217Z,40.19
2024-05-09T19:22:06.323Z,40.38
2024-05-09T19:27:06.482Z,40.69
2024-05-09T19:32:06.229Z,41.01
2024-05-09T19:37:06.402Z,41.41
2024-05-09T19:42:06.588Z,41.79
2024-05-09T19:47:06.200Z,42.24
2024-05-09T19:52:06.379Z,43.15
2024-05-09T19:57:06.505Z,44.10
2024-05-09T20:02:06.209Z,44.74
2024-05-09T20:07:06.122Z,45.29
2024-05-09T20:12:06.493Z,45.59
2024-05-09T20:17:06.415Z,46.35
2024-05-09T20:22:06.554Z,46.99
2024-05-09T20:27:06.325Z,47.36
2024-05-09T20:32:06.715Z,48.06
2024-05-09T20:37:06.214Z,48.85
2024-05-09T20:42:06.728Z,49.33
2024-05-09T20:47:06.304Z,50.01
2024-05-09T20:52:06.281Z,50.70
2024-05-09T20:57:06.832Z,51.47
2024-05-09T21:02:06.313Z,52.05
2024-05-09T21:07:06.227Z,52.82
2024-05-09T21:12:06.561Z,53.31
2024-05-09T21:17:06.157Z,53.87
2024-05-09T21:22:06.276Z,54.27
2024-05-09T21:27:06.231Z,55.43
2024-05-09T21:32:06.695Z,55.17
2024-05-09T21:37:06.220Z,56.02
2024-05-09T21:42:06.124Z,55.90
2024-05-09T21:47:06.566Z,56.17
2024-05-09T21:52:06.088Z,56.94
2024-05-09T21:57:08.017Z,57.90
2024-05-09T22:02:06.839Z,57.90
2024-05-09T22:07:08.087Z,58.36
2024-05-09T22:12:06.174Z,58.59
2024-05-09T22:17:06.126Z,59.23
2024-05-09T22:22:06.203Z,59.17
2024-05-09T22:27:07.902Z,59.75
2024-05-09T22:32:06.392Z,60.23
2024-05-09T22:37:06.134Z,60.74
2024-05-09T22:42:06.132Z,61.27
2024-05-09T22:47:06.488Z,61.47
2024-05-09T22:52:06.430Z,62.04
2024-05-09T22:57:06.028Z,62.16
2024-05-09T23:02:06.482Z,62.87
2024-05-09T23:07:06.220Z,62.73
2024-05-09T23:12:06.428Z,63.33
2024-05-09T23:17:06.393Z,64.25
2024-05-09T23:22:06.173Z,64.58
2024-05-09T23:27:06.120Z,65.48
2024-05-09T23:32:08.339Z,65.80
2024-05-09T23:37:06.080Z,66.36
2024-05-09T23:42:06.279Z,66.72
2024-05-09T23:47:07.376Z,66.77
2024-05-09T23:52:06.413Z,67.12
2024-05-09T23:57:06.216Z,67.14
